createdAt,value
2019-04-11T00:00:31.297Z,101716.91
2019-04-11T00:02:38.537Z,101715.23
2019-04-11T00:04:46.319Z,101715.23
2019-04-11T00:06:54.034Z,101719.59
2019-04-11T00:09:00.847Z,101720.94
2019-04-11T00:11:09.429Z,101720.55
2019-04-11T00:13:21.556Z,101720.63
2019-04-11T00:15:24.681Z,101722.88
2019-04-11T00:17:32.123Z,101715.20
2019-04-11T00:19:40.087Z,101713.58
2019-04-11T00:21:46.778Z,101716.23
2019-04-11T00:23:53.147Z,101714.25
2019-04-11T00:26:00.093Z,101710.87
2019-04-11T00:28:07.763Z,101716.93
2019-04-11T00:30:15.720Z,101720.88
2019-04-11T00:32:22.330Z,101713.19
2019-04-11T00:34:30.954Z,101719.25
2019-04-11T00:36:39.292Z,101716.72
2019-04-11T00:38:46.177Z,101716.31
2019-04-11T00:40:54.469Z,101718.55
2019-04-11T00:43:03.147Z,101715.16
2019-04-11T00:45:10.249Z,101713.07
2019-04-11T00:47:18.586Z,101717.48
2019-04-11T00:49:26.225Z,101719.33
2019-04-11T00:53:45.144Z,101717.70
2019-04-11T00:55:51.550Z,101716.88
2019-04-11T00:57:59.402Z,101721.18
2019-04-11T01:00:09.429Z,101720.82
2019-04-11T01:02:17.738Z,101722.53
2019-04-11T01:04:25.459Z,101721.28
2019-04-11T01:06:32.197Z,101720.89
2019-04-11T01:08:39.904Z,101720.48
2019-04-11T01:10:47.713Z,101724.38
2019-04-11T01:12:54.815Z,101724.42
2019-04-11T01:15:03.018Z,101726.61
2019-04-11T01:17:11.205Z,101724.02
2019-04-11T01:19:18.425Z,101726.59
2019-04-11T01:21:26.406Z,101731.35
2019-04-11T01:23:35.351Z,101720.50
2019-04-11T01:25:41.769Z,101723.08
2019-04-11T01:27:48.445Z,101718.25
2019-04-11T01:29:55.691Z,101717.75
2019-04-11T01:32:06.642Z,101724.55
2019-04-11T01:34:13.481Z,101724.43
2019-04-11T01:36:20.613Z,101722.11
2019-04-11T01:38:28.350Z,101720.67
2019-04-11T01:40:36.002Z,101717.14
2019-04-11T01:42:43.708Z,101719.59
2019-04-11T01:44:50.392Z,101720.38
2019-04-11T01:46:58.090Z,101713.38
2019-04-11T01:49:14.311Z,101713.22
2019-04-11T01:51:21.243Z,101715.67
2019-04-11T01:53:27.888Z,101711.33
2019-04-11T01:55:34.742Z,101713.81
2019-04-11T01:57:43.099Z,101716.75
2019-04-11T01:59:49.796Z,101717.14
2019-04-11T02:02:01.261Z,101718.27
2019-04-11T02:04:19.459Z,101714.79
2019-04-11T02:06:27.727Z,101714.67
2019-04-11T02:08:35.701Z,101719.35
2019-04-11T02:10:43.225Z,101720.15
2019-04-11T02:12:51.112Z,101714.11
2019-04-11T02:14:57.732Z,101713.15
2019-04-11T02:17:06.409Z,101716.06
2019-04-11T02:19:14.403Z,101720.78
2019-04-11T02:21:21.931Z,101719.77
2019-04-11T02:23:31.618Z,101722.76
2019-04-11T02:25:58.169Z,101718.86
2019-04-11T02:28:06.835Z,101718.37
2019-04-11T02:30:15.959Z,101723.53
2019-04-11T02:32:25.413Z,101726.11
2019-04-11T02:34:31.713Z,101723.41
2019-04-11T02:36:38.493Z,101728.48
2019-04-11T02:38:48.846Z,101731.87
2019-04-11T02:40:55.085Z,101732.27
2019-04-11T02:43:05.007Z,101732.19
2019-04-11T02:45:24.847Z,101730.79
2019-04-11T02:47:25.377Z,101730.27
2019-04-11T02:49:30.949Z,101726.78
2019-04-11T02:51:38.829Z,101733.16
2019-04-11T02:53:47.243Z,101739.67
2019-04-11T02:55:56.422Z,101734.84
2019-04-11T02:58:07.600Z,101736.05
2019-04-11T03:00:15.841Z,101737.25
2019-04-11T03:02:23.805Z,101741.91
2019-04-11T03:04:34.709Z,101737.09
2019-04-11T03:06:43.883Z,101746.09
2019-04-11T03:08:52.913Z,101742.90
2019-04-11T03:11:01.691Z,101744.09
2019-04-11T03:13:10.503Z,101748.41
2019-04-11T03:15:33.621Z,101744.39
2019-04-11T03:17:34.233Z,101750.69
2019-04-11T03:19:53.694Z,101754.52
2019-04-11T03:21:47.332Z,101750.56
2019-04-11T03:23:54.357Z,101755.31
2019-04-11T03:26:00.819Z,101758.30
2019-04-11T03:28:13.401Z,101756.94
2019-04-11T03:30:21.075Z,101759.91
2019-04-11T03:33:17.141Z,101765.40
2019-04-11T03:35:20.995Z,101761.53
2019-04-11T03:37:19.460Z,101767.98
2019-04-11T03:39:11.358Z,101761.41
2019-04-11T03:41:21.994Z,101764.78
2019-04-11T03:43:24.295Z,101764.34
2019-04-11T03:45:38.159Z,101763.98
2019-04-11T03:47:40.028Z,101772.61
2019-04-11T03:49:44.885Z,101771.22
2019-04-11T03:51:46.064Z,101779.27
2019-04-11T03:53:53.665Z,101774.11
2019-04-11T03:56:03.723Z,101783.54
2019-04-11T03:58:10.567Z,101779.20
2019-04-11T04:00:19.197Z,101780.08
2019-04-11T04:02:26.568Z,101777.98
2019-04-11T04:04:35.229Z,101778.48
2019-04-11T04:06:43.474Z,101778.52
2019-04-11T04:08:50.942Z,101780.68
2019-04-11T04:11:06.181Z,101785.84
2019-04-11T04:13:16.913Z,101789.20
2019-04-11T04:15:41.646Z,101794.35
2019-04-11T04:17:47.545Z,101796.52
2019-04-11T04:19:56.551Z,101790.11
2019-04-11T04:22:11.403Z,101788.48
2019-04-11T04:24:30.056Z,101794.61
2019-04-11T04:26:35.547Z,101795.52
2019-04-11T04:28:42.938Z,101805.58
2019-04-11T04:30:49.707Z,101803.53
2019-04-11T04:32:56.797Z,101801.42
2019-04-11T04:35:10.177Z,101798.94
2019-04-11T04:37:16.115Z,101800.80
2019-04-11T04:39:24.813Z,101801.30
2019-04-11T04:41:41.308Z,101803.49
2019-04-11T04:43:44.766Z,101810.41
2019-04-11T04:46:08.741Z,101812.64
2019-04-11T04:48:05.615Z,101814.84
2019-04-11T04:50:09.043Z,101808.98
2019-04-11T04:54:33.028Z,101810.93
2019-04-11T04:56:41.346Z,101810.14
2019-04-11T05:01:01.126Z,101815.83
2019-04-11T05:03:07.800Z,101817.62
2019-04-11T05:05:14.694Z,101816.36
2019-04-11T05:07:21.584Z,101820.31
2019-04-11T05:09:28.143Z,101817.50
2019-04-11T05:11:36.158Z,101817.71
2019-04-11T05:13:46.952Z,101822.73
2019-04-11T05:16:04.687Z,101819.35
2019-04-11T05:18:01.851Z,101816.47
2019-04-11T05:20:11.865Z,101816.23
2019-04-11T05:22:19.014Z,101814.28
2019-04-11T05:24:26.400Z,101812.83
2019-04-11T05:26:33.343Z,101818.08
2019-04-11T05:28:39.941Z,101815.17
2019-04-11T05:30:49.004Z,101818.44
2019-04-11T05:32:55.695Z,101815.60
2019-04-11T05:35:02.889Z,101818.92
2019-04-11T05:37:09.283Z,101818.25
2019-04-11T05:39:18.419Z,101821.89
2019-04-11T05:41:25.116Z,101822.48
2019-04-11T05:43:37.247Z,101827.32
2019-04-11T05:45:40.466Z,101826.66
2019-04-11T05:47:51.703Z,101825.19
2019-04-11T05:49:59.053Z,101828.85
2019-04-11T05:52:08.089Z,101830.14
2019-04-11T05:54:16.416Z,101827.80
2019-04-11T05:56:25.630Z,101828.11
2019-04-11T05:58:36.571Z,101827.23
2019-04-11T06:00:50.757Z,101828.61
2019-04-11T06:03:03.810Z,101835.34
2019-04-11T06:05:13.220Z,101837.28
2019-04-11T06:07:21.562Z,101839.67
2019-04-11T06:09:35.074Z,101836.50
2019-04-11T06:11:57.959Z,101835.34
2019-04-11T06:14:07.376Z,101841.65
2019-04-11T06:16:16.659Z,101826.00
2019-04-11T06:18:32.282Z,101833.52
2019-04-11T06:20:37.611Z,101833.77
2019-04-11T06:22:49.790Z,101833.47
2019-04-11T06:25:11.263Z,101837.88
2019-04-11T06:27:28.643Z,101837.78
2019-04-11T06:29:38.956Z,101839.91
2019-04-11T06:32:03.715Z,101835.20
2019-04-11T06:34:11.338Z,101838.72
2019-04-11T06:36:36.979Z,101838.91
2019-04-11T06:38:51.260Z,101840.35
2019-04-11T06:41:06.259Z,101839.02
2019-04-11T06:43:18.700Z,101843.70
2019-04-11T06:45:39.863Z,101838.09
2019-04-11T06:47:54.313Z,101847.27
2019-04-11T06:50:11.060Z,101844.94
2019-04-11T06:52:24.338Z,101849.83
2019-04-11T06:54:56.122Z,101841.62
2019-04-11T06:57:09.644Z,101845.81
2019-04-11T06:59:18.475Z,101843.75
2019-04-11T07:01:27.869Z,101845.73
2019-04-11T07:03:36.310Z,101847.35
2019-04-11T07:05:42.723Z,101843.45
2019-04-11T07:07:57.785Z,101846.27
2019-04-11T07:10:07.095Z,101847.14
2019-04-11T07:12:15.613Z,101847.11
2019-04-11T07:14:35.369Z,101847.67
2019-04-11T07:17:06.125Z,101851.70
2019-04-11T07:19:13.448Z,101849.08
2019-04-11T07:21:19.896Z,101853.03
2019-04-11T07:23:59.662Z,101854.64
2019-04-11T07:26:08.405Z,101854.26
2019-04-11T07:28:25.266Z,101850.52
2019-04-11T07:30:49.903Z,101846.72
2019-04-11T07:32:57.806Z,101849.70
2019-04-11T07:35:22.805Z,101853.63
2019-04-11T07:37:32.457Z,101851.52
2019-04-11T07:39:47.307Z,101841.97
2019-04-11T07:41:56.107Z,101849.27
2019-04-11T07:44:02.486Z,101854.81
2019-04-11T07:46:24.617Z,101860.83
2019-04-11T07:48:33.735Z,101862.31
2019-04-11T07:50:40.753Z,101854.05
2019-04-11T07:52:49.025Z,101858.86
2019-04-11T07:54:56.863Z,101859.61
2019-04-11T07:57:08.515Z,101864.80
2019-04-11T07:59:16.820Z,101861.82
2019-04-11T08:01:25.009Z,101857.66
2019-04-11T08:03:51.286Z,101867.12
2019-04-11T08:06:08.284Z,101863.09
2019-04-11T08:08:21.408Z,101867.02
2019-04-11T08:10:29.416Z,101869.33
2019-04-11T08:12:37.847Z,101861.98
2019-04-11T08:14:59.336Z,101859.73
2019-04-11T08:17:25.442Z,101854.65
2019-04-11T08:19:37.130Z,101857.42
2019-04-11T08:21:56.761Z,101855.80
2019-04-11T08:24:05.223Z,101852.00
2019-04-11T08:26:26.234Z,101857.72
2019-04-11T08:28:33.958Z,101856.81
2019-04-11T08:30:51.868Z,101862.30
2019-04-11T08:33:00.331Z,101861.50
2019-04-11T08:35:10.160Z,101865.22
2019-04-11T08:37:35.779Z,101870.30
2019-04-11T08:39:42.730Z,101874.59
2019-04-11T08:42:07.330Z,101870.52
2019-04-11T08:44:15.365Z,101871.53
2019-04-11T08:46:42.675Z,101868.11
2019-04-11T08:48:59.966Z,101864.31
2019-04-11T08:51:11.309Z,101862.14
2019-04-11T08:53:21.810Z,101858.68
2019-04-11T08:55:44.674Z,101855.00
2019-04-11T08:57:41.559Z,101856.87
2019-04-11T08:59:55.962Z,101856.48
2019-04-11T09:02:02.738Z,101850.82
2019-04-11T09:04:27.625Z,101861.22
2019-04-11T09:06:35.123Z,101856.43
2019-04-11T09:08:50.949Z,101856.47
2019-04-11T09:11:12.772Z,101853.44
2019-04-11T09:13:21.207Z,101854.33
2019-04-11T09:15:46.202Z,101859.02
2019-04-11T09:18:02.048Z,101849.00
2019-04-11T09:20:21.461Z,101857.70
2019-04-11T09:22:33.107Z,101853.73
2019-04-11T09:24:40.881Z,101866.31
2019-04-11T09:26:56.176Z,101857.23
2019-04-11T09:29:03.968Z,101849.02
2019-04-11T09:31:30.035Z,101856.89
2019-04-11T09:33:38.049Z,101859.50
2019-04-11T09:35:55.466Z,101856.47
2019-04-11T09:38:08.375Z,101851.73
2019-04-11T09:40:20.057Z,101854.80
2019-04-11T09:42:36.348Z,101851.33
2019-04-11T09:44:50.618Z,101858.25
2019-04-11T09:47:15.547Z,101862.19
2019-04-11T09:49:33.190Z,101860.03
2019-04-11T09:51:42.636Z,101863.89
2019-04-11T09:53:56.510Z,101854.34
2019-04-11T09:56:20.907Z,101864.29
2019-04-11T09:58:32.346Z,101859.89
2019-04-11T10:00:57.214Z,101863.72
2019-04-11T10:03:06.671Z,101864.83
2019-04-11T10:05:15.942Z,101877.77
2019-04-11T10:07:21.985Z,101869.91
2019-04-11T10:09:30.388Z,101878.08
2019-04-11T10:11:38.089Z,101877.14
2019-04-11T10:13:53.376Z,101881.86
2019-04-11T10:16:07.648Z,101884.42
2019-04-11T10:18:38.167Z,101880.86
2019-04-11T10:20:42.668Z,101885.22
2019-04-11T10:22:51.982Z,101887.32
2019-04-11T10:25:19.081Z,101894.87
2019-04-11T10:27:45.475Z,101890.66
2019-04-11T10:30:09.344Z,101886.70
2019-04-11T10:32:17.464Z,101895.80
2019-04-11T10:34:37.862Z,101888.50
2019-04-11T10:36:45.829Z,101891.07
2019-04-11T10:38:57.167Z,101889.41
2019-04-11T10:41:04.718Z,101889.79
2019-04-11T10:43:11.889Z,101893.69
2019-04-11T10:45:20.646Z,101897.23
2019-04-11T10:47:34.470Z,101899.48
2019-04-11T10:49:59.040Z,101896.83
2019-04-11T10:52:07.269Z,101901.55
2019-04-11T10:54:15.597Z,101904.84
2019-04-11T10:56:30.496Z,101903.26
2019-04-11T10:58:47.347Z,101903.30
2019-04-11T11:01:01.931Z,101900.17
2019-04-11T11:03:08.049Z,101902.41
2019-04-11T11:05:17.909Z,101910.28
2019-04-11T11:07:26.820Z,101915.05
2019-04-11T11:09:35.401Z,101908.17
2019-04-11T11:11:44.158Z,101900.78
2019-04-11T11:13:56.328Z,101910.12
2019-04-11T11:16:02.793Z,101907.12
2019-04-11T11:18:48.034Z,101908.44
2019-04-11T11:20:53.911Z,101909.44
2019-04-11T11:22:57.154Z,101905.15
2019-04-11T11:25:15.351Z,101912.11
2019-04-11T11:27:22.312Z,101905.71
2019-04-11T11:29:31.929Z,101911.74
2019-04-11T11:31:40.763Z,101910.11
2019-04-11T11:33:47.480Z,101914.44
2019-04-11T11:36:13.308Z,101908.05
2019-04-11T11:38:21.986Z,101907.58
2019-04-11T11:40:47.981Z,101916.58
2019-04-11T11:43:12.313Z,101917.00
2019-04-11T11:45:25.608Z,101922.17
2019-04-11T11:47:43.361Z,101925.23
2019-04-11T11:49:58.187Z,101917.02
2019-04-11T11:52:04.203Z,101918.31
2019-04-11T11:54:17.653Z,101918.65
2019-04-11T11:56:26.216Z,101919.58
2019-04-11T11:58:51.846Z,101912.59
2019-04-11T12:00:57.369Z,101926.45
2019-04-11T12:03:11.431Z,101924.30
2019-04-11T12:05:20.506Z,101917.75
2019-04-11T12:07:36.241Z,101922.11
2019-04-11T12:09:47.201Z,101911.34
2019-04-11T12:11:56.921Z,101917.92
2019-04-11T12:14:07.831Z,101921.74
2019-04-11T12:16:21.873Z,101925.66
2019-04-11T12:18:48.423Z,101916.06
2019-04-11T12:20:58.755Z,101913.14
2019-04-11T12:23:06.634Z,101910.63
2019-04-11T12:25:14.971Z,101911.06
2019-04-11T12:27:41.451Z,101914.55
2019-04-11T12:29:59.971Z,101915.40
2019-04-11T12:32:08.652Z,101915.08
2019-04-11T12:34:16.861Z,101913.77
2019-04-11T12:36:26.919Z,101912.46
2019-04-11T12:38:48.541Z,101916.38
2019-04-11T12:41:12.772Z,101903.36
2019-04-11T12:43:19.585Z,101906.44
2019-04-11T12:45:28.101Z,101901.66
2019-04-11T12:47:38.737Z,101911.17
2019-04-11T12:49:53.195Z,101904.67
2019-04-11T12:52:16.975Z,101906.42
2019-04-11T12:54:27.445Z,101909.02
2019-04-11T12:56:52.853Z,101903.86
2019-04-11T12:58:59.318Z,101895.50
2019-04-11T13:01:20.846Z,101907.83
2019-04-11T13:03:44.926Z,101906.10
2019-04-11T13:05:54.349Z,101906.86
2019-04-11T13:08:19.557Z,101906.02
2019-04-11T13:10:26.240Z,101903.42
2019-04-11T13:12:50.645Z,101907.81
2019-04-11T13:14:58.915Z,101915.95
2019-04-11T13:17:11.835Z,101910.70
2019-04-11T13:19:26.098Z,101912.47
2019-04-11T13:23:56.235Z,101909.98
2019-04-11T13:26:05.342Z,101903.84
2019-04-11T13:28:11.927Z,101902.98
2019-04-11T13:30:29.946Z,101910.30
2019-04-11T13:32:45.095Z,101911.08
2019-04-11T13:34:53.415Z,101912.34
2019-04-11T13:37:17.294Z,101924.01
2019-04-11T13:39:24.583Z,101916.16
2019-04-11T13:41:42.002Z,101916.71
2019-04-11T13:43:50.825Z,101910.55
2019-04-11T13:46:15.411Z,101909.24
2019-04-11T13:48:44.273Z,101909.34
2019-04-11T13:50:59.805Z,101906.31
2019-04-11T13:53:10.822Z,101908.77
2019-04-11T13:55:19.762Z,101911.41
2019-04-11T13:57:27.471Z,101912.38
2019-04-11T13:59:33.525Z,101908.44
2019-04-11T14:01:42.553Z,101905.02
2019-04-11T14:04:08.682Z,101911.08
2019-04-11T14:06:20.746Z,101905.05
2019-04-11T14:08:28.776Z,101898.17
2019-04-11T14:10:36.975Z,101904.63
2019-04-11T14:12:44.355Z,101906.33
2019-04-11T14:14:52.040Z,101905.02
2019-04-11T14:17:06.606Z,101906.61
2019-04-11T14:19:31.405Z,101907.01
2019-04-11T14:21:37.764Z,101903.52
2019-04-11T14:23:59.497Z,101908.29
2019-04-11T14:26:14.761Z,101903.88
2019-04-11T14:28:22.860Z,101909.48
2019-04-11T14:30:51.514Z,101918.16
2019-04-11T14:32:57.161Z,101910.80
2019-04-11T14:35:14.432Z,101898.21
2019-04-11T14:37:37.745Z,101911.23
2019-04-11T14:39:38.534Z,101906.91
2019-04-11T14:41:46.732Z,101901.67
2019-04-11T14:43:57.590Z,101903.42
2019-04-11T14:46:21.665Z,101909.89
2019-04-11T14:48:43.891Z,101918.59
2019-04-11T14:51:02.590Z,101907.25
2019-04-11T14:53:16.916Z,101901.55
2019-04-11T14:55:25.928Z,101896.03
2019-04-11T14:57:47.236Z,101900.79
2019-04-11T14:59:58.225Z,101903.87
2019-04-11T15:02:18.629Z,101905.13
2019-04-11T15:04:43.689Z,101907.25
2019-04-11T15:06:56.621Z,101910.65
2019-04-11T15:09:09.243Z,101913.61
2019-04-11T15:11:21.753Z,101914.02
2019-04-11T15:13:29.743Z,101903.64
2019-04-11T15:15:39.608Z,101908.04
2019-04-11T15:17:46.840Z,101905.81
2019-04-11T15:19:55.294Z,101901.57
2019-04-11T15:22:07.691Z,101898.52
2019-04-11T15:24:15.378Z,101896.32
2019-04-11T15:26:24.807Z,101898.94
2019-04-11T15:28:38.711Z,101902.38
2019-04-11T15:30:48.517Z,101905.72
2019-04-11T15:32:53.551Z,101902.28
2019-04-11T15:35:00.331Z,101911.83
2019-04-11T15:37:21.631Z,101901.81
2019-04-11T15:39:44.745Z,101906.48
2019-04-11T15:41:56.371Z,101906.42
2019-04-11T15:44:15.133Z,101908.49
2019-04-11T15:46:25.871Z,101907.98
2019-04-11T15:48:43.631Z,101917.00
2019-04-11T15:51:07.634Z,101922.57
2019-04-11T15:53:16.251Z,101920.36
2019-04-11T15:55:22.675Z,101929.05
2019-04-11T15:57:31.180Z,101923.39
2019-04-11T15:59:37.417Z,101919.48
2019-04-11T16:02:03.145Z,101917.83
2019-04-11T16:04:21.788Z,101917.83
2019-04-11T16:06:46.298Z,101913.01
2019-04-11T16:08:52.870Z,101917.21
2019-04-11T16:11:12.506Z,101913.67
2019-04-11T16:13:32.796Z,101914.09
2019-04-11T16:15:47.069Z,101914.48
2019-04-11T16:18:08.600Z,101920.42
2019-04-11T16:20:18.138Z,101920.77
2019-04-11T16:22:43.392Z,101934.08
2019-04-11T16:24:52.140Z,101918.88
2019-04-11T16:27:02.152Z,101930.95
2019-04-11T16:29:20.438Z,101933.05
2019-04-11T16:31:30.939Z,101924.34
2019-04-11T16:33:40.223Z,101928.66
2019-04-11T16:35:48.329Z,101926.48
2019-04-11T16:38:00.458Z,101933.85
2019-04-11T16:40:16.631Z,101933.44
2019-04-11T16:42:25.110Z,101935.11
2019-04-11T16:44:36.052Z,101941.23
2019-04-11T16:47:00.752Z,101936.95
2019-04-11T16:49:09.311Z,101945.59
2019-04-11T16:51:15.980Z,101939.93
2019-04-11T16:53:24.201Z,101941.23
2019-04-11T16:55:30.759Z,101954.61
2019-04-11T16:57:37.430Z,101945.52
2019-04-11T16:59:44.601Z,101946.39
2019-04-11T17:01:53.899Z,101949.45
2019-04-11T17:03:59.160Z,101946.84
2019-04-11T17:06:07.857Z,101946.81
2019-04-11T17:08:18.743Z,101947.27
2019-04-11T17:10:43.752Z,101954.14
2019-04-11T17:12:50.242Z,101949.36
2019-04-11T17:14:57.412Z,101953.22
2019-04-11T17:17:14.463Z,101953.22
2019-04-11T17:19:12.372Z,101945.84
2019-04-11T17:21:19.472Z,101955.44
2019-04-11T17:23:27.669Z,101960.64
2019-04-11T17:25:34.539Z,101962.70
2019-04-11T17:27:41.601Z,101966.17
2019-04-11T17:29:49.373Z,101963.99
2019-04-11T17:31:57.220Z,101963.99
2019-04-11T17:34:05.622Z,101963.49
2019-04-11T17:36:13.722Z,101964.75
2019-04-11T17:38:20.710Z,101966.01
2019-04-11T17:40:27.528Z,101971.20
2019-04-11T17:42:36.843Z,101971.16
2019-04-11T17:44:43.251Z,101967.68
2019-04-11T17:46:49.839Z,101982.84
2019-04-11T17:48:57.741Z,101984.52
2019-04-11T17:51:05.854Z,101990.55
2019-04-11T17:53:14.292Z,101990.09
2019-04-11T17:55:23.657Z,101997.03
2019-04-11T17:57:30.796Z,101997.88
2019-04-11T17:59:37.475Z,101998.30
2019-04-11T18:01:46.543Z,101996.16
2019-04-11T18:03:53.549Z,102000.89
2019-04-11T18:06:01.560Z,102000.44
2019-04-11T18:08:08.540Z,102002.56
2019-04-11T18:10:17.060Z,102006.45
2019-04-11T18:12:26.311Z,102002.93
2019-04-11T18:14:33.285Z,102001.17
2019-04-11T18:16:40.090Z,102005.44
2019-04-11T18:18:47.284Z,102007.16
2019-04-11T18:20:55.084Z,102010.11
2019-04-11T18:23:02.198Z,102019.20
2019-04-11T18:25:10.858Z,102019.16
2019-04-11T18:27:21.554Z,102020.88
2019-04-11T18:29:26.587Z,102023.47
2019-04-11T18:31:39.859Z,102024.35
2019-04-11T18:33:47.008Z,102023.92
2019-04-11T18:35:56.118Z,102031.67
2019-04-11T18:38:05.199Z,102034.22
2019-04-11T18:40:13.767Z,102032.96
2019-04-11T18:42:20.323Z,102037.69
2019-04-11T18:44:27.463Z,102037.66
2019-04-11T18:46:35.671Z,102036.34
2019-04-11T18:48:42.968Z,102039.78
2019-04-11T18:50:50.800Z,102038.06
2019-04-11T18:52:59.520Z,102044.95
2019-04-11T18:55:09.468Z,102033.70
2019-04-11T18:57:19.109Z,102036.72
2019-04-11T18:59:28.130Z,102037.17
2019-04-11T19:01:39.218Z,102042.80
2019-04-11T19:03:43.718Z,102043.25
2019-04-11T19:05:52.669Z,102040.66
2019-04-11T19:07:59.298Z,102036.30
2019-04-11T19:10:08.918Z,102040.20
2019-04-11T19:12:16.436Z,102044.97
2019-04-11T19:14:24.838Z,102038.90
2019-04-11T19:16:31.879Z,102034.99
2019-04-11T19:18:40.138Z,102036.66
2019-04-11T19:20:49.880Z,102036.29
2019-04-11T19:22:55.978Z,102042.36
2019-04-11T19:25:02.506Z,102042.32
2019-04-11T19:27:10.508Z,102040.60
2019-04-11T19:29:18.241Z,102043.58
2019-04-11T19:31:30.391Z,102037.91
2019-04-11T19:33:39.911Z,102037.02
2019-04-11T19:35:46.694Z,102035.27
2019-04-11T19:37:53.172Z,102039.20
2019-04-11T19:39:59.922Z,102039.61
2019-04-11T19:42:09.022Z,102041.29
2019-04-11T19:44:19.391Z,102037.34
2019-04-11T19:46:25.552Z,102044.75
2019-04-11T19:48:32.658Z,102046.06
2019-04-11T19:50:39.614Z,102044.30
2019-04-11T19:52:47.024Z,102039.51
2019-04-11T19:54:55.105Z,102042.52
2019-04-11T19:57:03.670Z,102037.70
2019-04-11T19:59:11.638Z,102037.28
2019-04-11T20:01:22.861Z,102034.68
2019-04-11T20:03:27.551Z,102039.41
2019-04-11T20:05:33.902Z,102035.52
2019-04-11T20:07:42.190Z,102034.20
2019-04-11T20:09:50.712Z,102040.70
2019-04-11T20:11:59.931Z,102038.47
2019-04-11T20:14:09.272Z,102040.66
2019-04-11T20:16:16.880Z,102053.22
2019-04-11T20:18:24.725Z,102050.98
2019-04-11T20:20:31.595Z,102050.52
2019-04-11T20:22:39.728Z,102050.09
2019-04-11T20:24:47.613Z,102047.04
2019-04-11T20:26:55.256Z,102044.85
2019-04-11T20:29:04.985Z,102043.96
2019-04-11T20:31:12.072Z,102051.75
2019-04-11T20:33:26.999Z,102048.74
2019-04-11T20:35:29.284Z,102053.94
2019-04-11T20:37:39.459Z,102049.58
2019-04-11T20:39:47.415Z,102045.69
2019-04-11T20:41:54.128Z,102051.34
2019-04-11T20:44:00.976Z,102045.21
2019-04-11T20:46:08.220Z,102053.41
2019-04-11T20:48:18.284Z,102046.03
2019-04-11T20:50:25.581Z,102050.77
2019-04-11T20:52:32.587Z,102046.81
2019-04-11T20:54:39.895Z,102054.59
2019-04-11T20:56:46.947Z,102050.70
2019-04-11T20:58:54.674Z,102050.24
2019-04-11T21:01:01.633Z,102051.13
2019-04-11T21:03:10.043Z,102053.30
2019-04-11T21:05:16.488Z,102050.64
2019-04-11T21:07:24.429Z,102051.98
2019-04-11T21:09:33.348Z,102054.13
2019-04-11T21:11:39.766Z,102051.94
2019-04-11T21:13:46.325Z,102054.49
2019-04-11T21:15:53.514Z,102054.49
2019-04-11T21:18:00.404Z,102049.70
2019-04-11T21:20:10.959Z,102053.18
2019-04-11T21:22:17.531Z,102057.95
2019-04-11T21:24:25.910Z,102058.73
2019-04-11T21:26:32.405Z,102056.97
2019-04-11T21:28:39.280Z,102054.36
2019-04-11T21:30:45.830Z,102059.48
2019-04-11T21:32:54.170Z,102057.31
2019-04-11T21:35:02.384Z,102056.38
2019-04-11T21:37:09.244Z,102060.72
2019-04-11T21:39:16.205Z,102054.24
2019-04-11T21:41:23.287Z,102053.36
2019-04-11T21:43:29.846Z,102057.67
2019-04-11T21:45:36.563Z,102056.38
2019-04-11T21:47:43.273Z,102055.03
2019-04-11T21:49:49.967Z,102064.97
2019-04-11T21:51:58.119Z,102058.91
2019-04-11T21:54:06.179Z,102055.02
2019-04-11T21:56:13.189Z,102060.21
2019-04-11T21:58:23.194Z,102064.61
2019-04-11T22:00:42.696Z,102057.62
2019-04-11T22:02:51.923Z,102057.62
2019-04-11T22:05:00.305Z,102056.31
2019-04-11T22:07:06.966Z,102053.72
2019-04-11T22:09:14.128Z,102056.72
2019-04-11T22:11:21.117Z,102048.06
2019-04-11T22:13:28.313Z,102051.02
2019-04-11T22:15:36.418Z,102046.64
2019-04-11T22:17:45.338Z,102047.11
2019-04-11T22:19:50.911Z,102051.83
2019-04-11T22:21:58.474Z,102050.07
2019-04-11T22:24:05.028Z,102045.77
2019-04-11T22:26:11.824Z,102049.23
2019-04-11T22:28:19.396Z,102051.43
2019-04-11T22:30:26.094Z,102051.00
2019-04-11T22:32:34.379Z,102051.83
2019-04-11T22:34:45.658Z,102050.07
2019-04-11T22:36:54.565Z,102049.64
2019-04-11T22:39:01.639Z,102052.66
2019-04-11T22:41:09.970Z,102056.55
2019-04-11T22:43:24.050Z,102059.56
2019-04-11T22:45:24.843Z,102055.66
2019-04-11T22:47:31.706Z,102062.61
2019-04-11T22:49:39.468Z,102059.56
2019-04-11T22:51:48.144Z,102063.91
2019-04-11T22:54:00.316Z,102062.09
2019-04-11T22:56:02.809Z,102068.58
2019-04-11T22:58:13.995Z,102065.14
2019-04-11T23:00:20.194Z,102072.92
2019-04-11T23:02:29.752Z,102072.92
2019-04-11T23:04:37.366Z,102078.11
2019-04-11T23:06:44.996Z,102076.81
2019-04-11T23:08:52.149Z,102082.42
2019-04-11T23:10:58.601Z,102078.53
2019-04-11T23:13:05.460Z,102075.98
2019-04-11T23:15:14.668Z,102072.47
2019-04-11T23:17:20.254Z,102068.63
2019-04-11T23:19:27.032Z,102071.69
2019-04-11T23:21:34.112Z,102077.72
2019-04-11T23:23:40.967Z,102074.28
2019-04-11T23:25:47.751Z,102071.17
2019-04-11T23:27:54.519Z,102073.75
2019-04-11T23:30:00.882Z,102074.16
2019-04-11T23:32:07.958Z,102073.70
2019-04-11T23:34:14.531Z,102076.74
2019-04-11T23:36:21.966Z,102071.09
2019-04-11T23:38:28.472Z,102067.22
2019-04-11T23:40:35.044Z,102065.45
2019-04-11T23:42:41.930Z,102068.50
2019-04-11T23:44:50.571Z,102063.78
2019-04-11T23:46:56.691Z,102064.98
2019-04-11T23:49:03.171Z,102066.73
2019-04-11T23:51:09.935Z,102067.58
2019-04-11T23:53:16.382Z,102066.27
2019-04-11T23:55:23.602Z,102067.20
2019-04-11T23:57:31.299Z,102064.91
2019-04-11T23:59:38.264Z,102059.30
